createdAt,value
2022-10-31T00:01:14.905Z,62901.75
2022-10-31T00:03:42.498Z,62207.31
2022-10-31T00:06:09.945Z,62207.31
2022-10-31T00:08:37.416Z,61548.88
2022-10-31T00:11:05.198Z,59847.41
2022-10-31T00:13:33.287Z,62883.63
2022-10-31T00:16:00.735Z,60862.34
2022-10-31T00:18:29.550Z,63219.13
2022-10-31T00:21:03.095Z,63205.78
2022-10-31T00:23:31.392Z,62550.22
2022-10-31T00:26:02.591Z,63554.69
2022-10-31T00:28:31.269Z,64216.00
2022-10-31T00:31:00.737Z,61525.41
2022-10-31T00:33:29.865Z,63891.84
2022-10-31T00:35:57.560Z,64556.94
2022-10-31T00:38:25.162Z,63910.25
2022-10-31T00:40:52.593Z,64223.59
2022-10-31T00:43:20.080Z,65237.94
2022-10-31T00:45:47.656Z,65576.88
2022-10-31T00:48:15.318Z,63889.66
2022-10-31T00:50:44.395Z,64239.91
2022-10-31T00:53:11.838Z,63903.75
2022-10-31T00:55:39.296Z,63571.91
2022-10-31T00:58:06.778Z,62885.75
2022-10-31T01:00:34.482Z,64226.31
2022-10-31T01:03:02.375Z,63555.22
2022-10-31T01:05:30.101Z,64214.34
2022-10-31T01:07:58.891Z,64214.91
2022-10-31T01:10:26.442Z,64541.66
2022-10-31T01:12:54.021Z,64202.94
2022-10-31T01:15:24.188Z,64197.50
2022-10-31T01:17:51.862Z,64189.88
2022-10-31T01:20:19.976Z,64519.78
2022-10-31T01:22:47.451Z,64517.06
2022-10-31T01:25:16.275Z,63845.31
2022-10-31T01:27:43.705Z,63848.03
2022-10-31T01:30:12.293Z,63843.19
2022-10-31T01:32:39.727Z,63507.31
2022-10-31T01:35:07.613Z,63834.50
2022-10-31T01:37:35.083Z,64165.41
2022-10-31T01:40:02.586Z,64171.91
2022-10-31T01:42:31.392Z,63836.66
2022-10-31T01:45:02.592Z,64497.34
2022-10-31T01:47:39.708Z,64493.53
2022-10-31T01:50:14.754Z,64168.66
2022-10-31T01:52:46.599Z,64156.16
2022-10-31T01:55:18.027Z,65167.28
2022-10-31T01:57:50.057Z,64832.03
2022-10-31T02:00:17.937Z,64490.81
2022-10-31T02:02:47.503Z,64496.28
2022-10-31T02:05:19.573Z,65500.28
2022-10-31T02:07:53.825Z,64830.38
2022-10-31T02:10:23.175Z,65493.66
2022-10-31T02:12:53.409Z,65501.94
2022-10-31T02:15:21.010Z,65167.28
2022-10-31T02:17:48.735Z,65832.72
2022-10-31T02:20:19.589Z,65831.63
2022-10-31T02:23:26.742Z,65490.84
2022-10-31T02:26:14.838Z,64824.91
2022-10-31T02:29:08.073Z,64491.38
2022-10-31T02:31:43.402Z,64484.25
2022-10-31T02:34:19.589Z,64484.25
2022-10-31T02:36:56.743Z,64152.91
2022-10-31T02:39:27.460Z,64480.97
2022-10-31T02:42:05.957Z,64486.97
2022-10-31T02:44:40.936Z,64153.97
2022-10-31T02:47:14.082Z,64144.22
2022-10-31T02:49:50.392Z,63480.97
2022-10-31T02:52:21.862Z,64799.09
2022-10-31T02:54:50.046Z,64448.22
2022-10-31T02:57:22.441Z,64790.31
2022-10-31T02:59:53.325Z,65451.50
2022-10-31T03:02:43.727Z,65121.47
2022-10-31T03:05:25.617Z,65119.28
2022-10-31T03:08:01.813Z,65440.97
2022-10-31T03:10:37.551Z,64456.41
2022-10-31T03:13:12.612Z,65117.63
2022-10-31T03:15:45.178Z,64108.88
2022-10-31T03:18:17.099Z,64449.31
2022-10-31T03:20:50.104Z,65123.69
2022-10-31T03:23:20.212Z,65778.69
2022-10-31T03:25:49.008Z,65119.84
2022-10-31T03:28:20.826Z,65442.06
2022-10-31T03:30:50.241Z,65103.84
2022-10-31T03:33:27.934Z,65775.31
2022-10-31T03:35:59.188Z,66106.91
2022-10-31T03:38:27.722Z,65444.84
2022-10-31T03:40:59.204Z,65777.00
2022-10-31T03:43:30.938Z,66094.56
2022-10-31T03:45:58.849Z,66104.66
2022-10-31T03:48:28.358Z,66088.97
2022-10-31T03:51:03.787Z,66100.19
2022-10-31T03:53:36.388Z,66763.19
2022-10-31T03:56:09.604Z,66099.06
2022-10-31T03:58:44.969Z,66426.63
2022-10-31T04:01:17.695Z,66430.56
2022-10-31T04:03:47.415Z,66094.03
2022-10-31T04:06:18.844Z,66424.38
2022-10-31T04:08:51.016Z,66095.69
2022-10-31T04:11:22.310Z,66421.56
2022-10-31T04:13:51.089Z,67077.03
2022-10-31T04:16:19.637Z,67084.97
2022-10-31T04:18:48.477Z,67746.53
2022-10-31T04:21:15.920Z,67418.06
2022-10-31T04:23:43.353Z,68410.31
2022-10-31T04:26:13.655Z,68077.31
2022-10-31T04:28:41.626Z,67743.69
2022-10-31T04:31:12.361Z,68076.72
2022-10-31T04:33:40.172Z,68409.16
2022-10-31T04:36:09.370Z,67744.25
2022-10-31T04:38:36.829Z,67416.91
2022-10-31T04:41:04.523Z,68745.09
2022-10-31T04:43:31.952Z,68744.50
2022-10-31T04:45:59.409Z,68744.50
2022-10-31T04:48:27.186Z,68745.66
2022-10-31T04:50:54.633Z,69083.34
2022-10-31T04:53:23.405Z,69406.97
2022-10-31T04:55:50.853Z,69079.84
2022-10-31T04:58:18.467Z,68746.84
2022-10-31T05:00:46.006Z,70413.59
2022-10-31T05:03:13.492Z,69743.47
2022-10-31T05:05:40.934Z,69742.28
2022-10-31T05:08:08.392Z,69745.84
2022-10-31T05:10:38.129Z,70082.38
2022-10-31T05:13:06.221Z,70071.72
2022-10-31T05:15:34.301Z,69735.81
2022-10-31T05:18:02.430Z,70409.41
2022-10-31T05:20:31.631Z,71405.78
2022-10-31T05:23:01.247Z,70745.97
2022-10-31T05:25:30.201Z,70404.06
2022-10-31T05:27:59.465Z,69716.91
2022-10-31T05:30:29.634Z,71407.00
2022-10-31T05:32:57.944Z,71068.06
2022-10-31T05:35:27.969Z,70047.97
2022-10-31T05:37:55.446Z,69381.09
2022-10-31T05:40:23.636Z,70724.38
2022-10-31T05:42:53.497Z,70729.19
2022-10-31T05:45:23.509Z,70717.19
2022-10-31T05:47:54.522Z,71063.25
2022-10-31T05:50:22.857Z,69059.97
2022-10-31T05:52:56.745Z,72724.41
2022-10-31T05:55:24.346Z,70389.16
2022-10-31T05:57:51.788Z,71056.00
2022-10-31T06:00:19.500Z,71052.41
2022-10-31T06:02:48.413Z,71388.84
2022-10-31T06:05:20.934Z,71052.41
2022-10-31T06:07:48.403Z,70047.97
2022-10-31T06:10:16.708Z,70385.56
2022-10-31T06:12:44.164Z,69713.97
2022-10-31T06:15:11.998Z,69386.41
2022-10-31T06:17:39.454Z,67718.44
2022-10-31T06:20:09.977Z,68390.63
2022-10-31T06:22:37.572Z,66711.16
2022-10-31T06:25:05.570Z,66376.56
2022-10-31T06:27:33.026Z,67059.97
2022-10-31T06:30:00.561Z,67396.94
2022-10-31T06:32:28.002Z,66395.13
2022-10-31T06:37:54.048Z,65733.53
2022-10-31T06:40:21.806Z,65413.25
2022-10-31T06:42:49.310Z,64729.97
2022-10-31T06:45:16.848Z,65086.19
2022-10-31T06:48:10.948Z,65083.97
2022-10-31T06:50:31.774Z,64088.81
2022-10-31T06:53:00.795Z,64768.38
2022-10-31T06:55:29.196Z,64439.50
2022-10-31T06:58:01.907Z,63786.38
2022-10-31T07:00:32.380Z,63443.88
2022-10-31T07:03:01.267Z,63459.44
2022-10-31T07:05:30.072Z,62791.00
2022-10-31T07:08:01.631Z,64159.41
2022-10-31T07:10:34.302Z,64165.94
2022-10-31T07:13:06.386Z,63169.38
2022-10-31T07:15:36.724Z,64860.06
2022-10-31T07:18:05.424Z,65211.44
2022-10-31T07:20:33.589Z,64210.53
2022-10-31T07:23:02.723Z,65573.53
2022-10-31T07:25:30.548Z,65584.66
2022-10-31T07:27:58.610Z,66947.69
2022-10-31T07:30:26.431Z,66620.34
2022-10-31T07:32:53.916Z,69352.16
2022-10-31T07:35:23.047Z,72766.59
2022-10-31T07:37:51.444Z,77873.91
2022-10-31T07:40:21.425Z,78904.00
2022-10-31T07:42:50.305Z,83686.97
2022-10-31T07:45:19.667Z,86421.53
2022-10-31T07:47:48.985Z,91540.91
2022-10-31T07:50:18.720Z,96009.09
2022-10-31T07:52:46.570Z,100119.16
2022-10-31T07:55:14.998Z,108047.84
2022-10-31T07:57:43.930Z,113223.84
2022-10-31T08:00:12.618Z,122884.63
2022-10-31T08:02:40.086Z,127735.06
2022-10-31T08:05:08.051Z,129842.22
2022-10-31T08:07:38.572Z,132977.56
2022-10-31T08:10:07.050Z,141700.22
2022-10-31T08:12:34.525Z,143444.56
2022-10-31T08:15:03.632Z,153216.34
2022-10-31T08:17:31.510Z,153229.25
2022-10-31T08:19:58.946Z,153278.31
2022-10-31T08:22:26.398Z,153306.72
2022-10-31T08:24:53.845Z,153373.81
2022-10-31T08:27:21.777Z,153389.31
2022-10-31T08:29:49.237Z,153402.22
2022-10-31T08:32:18.020Z,153443.53
2022-10-31T08:34:45.483Z,153417.72
2022-10-31T08:37:12.983Z,153483.56
2022-10-31T08:39:40.454Z,153545.56
2022-10-31T08:42:07.969Z,153563.63
2022-10-31T08:44:35.453Z,153594.69
2022-10-31T08:47:02.930Z,153625.69
2022-10-31T08:49:31.685Z,153648.94
2022-10-31T08:51:59.191Z,153621.81
2022-10-31T08:54:26.640Z,153676.06
2022-10-31T08:56:56.197Z,153714.81
2022-10-31T08:59:23.775Z,153725.16
2022-10-31T09:01:51.417Z,153748.44
2022-10-31T09:04:19.047Z,153735.53
2022-10-31T09:07:19.594Z,153716.13
2022-10-31T09:09:35.265Z,153761.38
2022-10-31T09:12:02.770Z,153807.84
2022-10-31T09:14:30.259Z,153838.88
2022-10-31T09:16:57.728Z,153857.00
2022-10-31T09:19:25.186Z,153875.13
2022-10-31T09:21:55.842Z,153875.13
2022-10-31T09:24:26.901Z,153924.28
2022-10-31T09:26:54.355Z,153947.53
2022-10-31T09:29:24.938Z,153994.06
2022-10-31T09:31:56.162Z,154053.56
2022-10-31T09:34:23.717Z,154088.47
2022-10-31T09:36:51.165Z,154097.53
2022-10-31T09:39:19.962Z,154131.16
2022-10-31T09:42:00.596Z,154176.50
2022-10-31T09:44:38.721Z,154175.19
2022-10-31T09:47:16.203Z,154136.34
2022-10-31T09:50:04.453Z,154176.50
2022-10-31T09:52:35.525Z,154177.81
2022-10-31T09:55:08.104Z,154199.78
2022-10-31T09:57:37.552Z,154204.97
2022-10-31T10:00:06.993Z,154226.94
2022-10-31T10:02:39.630Z,154270.97
2022-10-31T10:05:12.007Z,154313.69
2022-10-31T10:07:52.381Z,154344.69
2022-10-31T10:10:29.352Z,154366.75
2022-10-31T10:13:13.682Z,154391.31
2022-10-31T10:15:49.355Z,154430.22
2022-10-31T10:18:28.829Z,154472.94
2022-10-31T10:21:08.750Z,154458.69
2022-10-31T10:23:54.074Z,154498.84
2022-10-31T10:26:27.484Z,154537.69
2022-10-31T10:29:05.497Z,154535.09
2022-10-31T10:31:42.153Z,154568.78
2022-10-31T10:34:19.923Z,154605.03
2022-10-31T10:36:52.158Z,154617.97
2022-10-31T10:39:24.770Z,154638.78
2022-10-31T10:42:11.278Z,154659.50
2022-10-31T10:44:59.266Z,154695.81
2022-10-31T10:47:41.287Z,154706.16
2022-10-31T10:50:16.193Z,154738.53
2022-10-31T10:52:54.586Z,154776.13
2022-10-31T10:55:34.932Z,154776.13
2022-10-31T10:58:05.831Z,154761.88
2022-10-31T11:00:36.805Z,154773.53
2022-10-31T11:03:05.969Z,154786.50
2022-10-31T11:05:38.601Z,154804.59
2022-10-31T11:08:07.674Z,154804.59
2022-10-31T11:10:35.930Z,154817.63
2022-10-31T11:13:19.520Z,154838.31
2022-10-31T11:15:54.679Z,154852.59
2022-10-31T11:20:59.213Z,154894.13
2022-10-31T11:23:29.139Z,154872.09
2022-10-31T11:25:59.642Z,154898.03
2022-10-31T11:28:30.375Z,154894.13
2022-10-31T11:31:00.158Z,154905.78
2022-10-31T11:33:32.674Z,154921.34
2022-10-31T11:36:01.849Z,154952.47
2022-10-31T11:38:35.769Z,154961.53
2022-10-31T11:41:12.936Z,154926.56
2022-10-31T11:43:50.407Z,154925.25
2022-10-31T11:46:23.369Z,154955.03
2022-10-31T11:48:53.805Z,154942.06
2022-10-31T11:51:27.518Z,154955.03
2022-10-31T11:54:00.149Z,154931.72
2022-10-31T11:56:40.069Z,154934.31
2022-10-31T11:59:20.238Z,154948.56
2022-10-31T12:01:52.691Z,154962.84
2022-10-31T12:04:20.607Z,154960.22
2022-10-31T12:06:49.791Z,154945.97
2022-10-31T12:09:23.385Z,154939.50
2022-10-31T12:12:12.141Z,154960.22
2022-10-31T12:14:53.335Z,154965.44
2022-10-31T12:17:35.507Z,154958.94
2022-10-31T12:23:17.942Z,154949.88
2022-10-31T12:25:52.386Z,154947.28
2022-10-31T12:28:45.393Z,154942.06
2022-10-31T12:31:28.635Z,154929.09
2022-10-31T12:34:04.089Z,154955.03
2022-10-31T12:36:48.729Z,154953.72
2022-10-31T12:39:27.557Z,154939.50
2022-10-31T12:42:04.329Z,154953.72
2022-10-31T12:44:45.998Z,154936.91
2022-10-31T12:47:30.071Z,154921.34
2022-10-31T12:50:13.816Z,154952.47
2022-10-31T12:52:55.374Z,154962.84
2022-10-31T12:55:40.101Z,154957.63
2022-10-31T12:58:12.596Z,154980.97
2022-10-31T13:00:46.792Z,154945.97
2022-10-31T13:03:22.036Z,154931.72
2022-10-31T13:05:55.667Z,154916.16
2022-10-31T13:08:28.065Z,154890.22
2022-10-31T13:11:06.643Z,154925.25
2022-10-31T13:13:39.874Z,154923.94
2022-10-31T13:16:13.534Z,154903.19
2022-10-31T13:18:46.426Z,154918.75
2022-10-31T13:21:20.772Z,154894.13
2022-10-31T13:23:52.437Z,154905.78
2022-10-31T13:26:29.040Z,154887.63
2022-10-31T13:29:04.859Z,154900.56
2022-10-31T13:31:32.494Z,154890.22
2022-10-31T13:34:05.568Z,154864.25
2022-10-31T13:36:39.595Z,154898.03
2022-10-31T13:39:20.540Z,154900.56
2022-10-31T13:41:52.353Z,154890.22
2022-10-31T13:44:24.926Z,154900.56
2022-10-31T13:46:53.429Z,154936.91
2022-10-31T13:49:39.872Z,154911.00
2022-10-31T13:52:16.138Z,154891.53
2022-10-31T13:54:45.773Z,154869.50
2022-10-31T13:57:20.035Z,154853.88
2022-10-31T13:59:53.617Z,154838.31
2022-10-31T14:02:28.497Z,154848.69
2022-10-31T14:04:59.968Z,154848.69
2022-10-31T14:07:28.751Z,154939.50
2022-10-31T14:10:00.112Z,154888.91
2022-10-31T14:12:32.913Z,154865.56
2022-10-31T14:15:06.647Z,154833.13
2022-10-31T14:17:46.774Z,154813.72
2022-10-31T14:20:39.334Z,154773.53
2022-10-31T14:23:15.004Z,154757.97
2022-10-31T14:25:42.682Z,154720.41
2022-10-31T14:28:24.006Z,154678.94
2022-10-31T14:30:56.461Z,154659.50
2022-10-31T14:33:27.054Z,154642.63
2022-10-31T14:36:06.065Z,154593.38
2022-10-31T14:38:56.774Z,154573.97
2022-10-31T14:41:38.410Z,154540.28
2022-10-31T14:44:32.196Z,154511.78
2022-10-31T14:47:09.785Z,154488.50
2022-10-31T14:49:53.019Z,154447.06
2022-10-31T14:52:22.146Z,154413.38
2022-10-31T14:54:54.575Z,154382.28
2022-10-31T14:57:25.959Z,154344.69
2022-10-31T15:00:00.745Z,154299.44
2022-10-31T15:02:37.686Z,154264.47
2022-10-31T15:05:08.791Z,154096.25
2022-10-31T15:07:40.882Z,154217.91
2022-10-31T15:10:22.135Z,154126.00
2022-10-31T15:12:52.813Z,154003.13
2022-10-31T15:15:22.163Z,141402.41
2022-10-31T15:17:53.244Z,136950.88
2022-10-31T15:20:24.201Z,154535.09
2022-10-31T15:22:53.339Z,154149.34
2022-10-31T15:25:22.693Z,156018.69
2022-10-31T15:27:51.370Z,154514.38
2022-10-31T15:30:21.737Z,154184.25
2022-10-31T15:32:57.414Z,154013.47
2022-10-31T15:35:28.042Z,153926.81
2022-10-31T15:37:59.041Z,138164.53
2022-10-31T15:40:29.086Z,127698.41
2022-10-31T15:42:58.969Z,120741.78
2022-10-31T15:45:28.448Z,114158.28
2022-10-31T15:47:59.599Z,114475.22
2022-10-31T15:50:33.091Z,106854.84
2022-10-31T15:53:06.972Z,104431.06
2022-10-31T15:55:41.930Z,104768.66
2022-10-31T15:58:14.574Z,99593.31
2022-10-31T16:00:42.631Z,96487.56
2022-10-31T16:03:24.883Z,98545.53
2022-10-31T16:05:54.029Z,98875.31
2022-10-31T16:08:35.306Z,97148.94
2022-10-31T16:11:19.294Z,96786.56
2022-10-31T16:13:56.656Z,97131.81
2022-10-31T16:16:40.459Z,95738.19
2022-10-31T16:19:17.940Z,95386.75
2022-10-31T16:21:46.507Z,92629.22
2022-10-31T16:24:19.914Z,89876.81
2022-10-31T16:26:52.371Z,89876.06
2022-10-31T16:29:35.437Z,87129.34
2022-10-31T16:32:03.082Z,88164.25
2022-10-31T16:34:30.617Z,91595.59
2022-10-31T16:36:58.137Z,88496.41
2022-10-31T16:39:27.128Z,90544.88
2022-10-31T16:41:57.916Z,89850.38
2022-10-31T16:44:27.649Z,89854.91
2022-10-31T16:47:10.843Z,91544.03
2022-10-31T16:49:38.677Z,90512.13
2022-10-31T16:52:06.285Z,89479.16
2022-10-31T16:54:35.194Z,88451.78
2022-10-31T16:57:04.967Z,88786.00
2022-10-31T16:59:34.183Z,89119.41
2022-10-31T17:02:03.317Z,88771.81
2022-10-31T17:04:32.889Z,88420.53
2022-10-31T17:07:00.378Z,88409.38
2022-10-31T17:09:27.860Z,86023.94
2022-10-31T17:11:56.733Z,86680.38
2022-10-31T17:14:24.298Z,84968.63
2022-10-31T17:16:51.740Z,83598.13
2022-10-31T17:19:19.268Z,82586.47
2022-10-31T17:21:46.822Z,83259.97
2022-10-31T17:24:17.846Z,82925.31
2022-10-31T17:26:45.330Z,84284.34
2022-10-31T17:29:18.920Z,82914.84
2022-10-31T17:31:46.401Z,85307.59
2022-10-31T17:34:13.881Z,87011.38
2022-10-31T17:36:41.392Z,85635.03
2022-10-31T17:39:09.882Z,84946.47
2022-10-31T17:41:37.336Z,84613.31
2022-10-31T17:44:05.093Z,84278.69
2022-10-31T17:46:34.037Z,82907.84
2022-10-31T17:49:01.733Z,83219.28
2022-10-31T17:51:29.230Z,82545.44
2022-10-31T17:53:59.781Z,82881.31
2022-10-31T17:56:27.664Z,81513.63
2022-10-31T17:58:57.160Z,82191.50
2022-10-31T18:01:25.146Z,81520.53
2022-10-31T18:03:54.176Z,81184.00
2022-10-31T18:06:21.664Z,79816.22
2022-10-31T18:08:49.089Z,80129.03
2022-10-31T18:11:20.331Z,77743.44
2022-10-31T18:13:47.925Z,76070.28
2022-10-31T18:16:19.081Z,77066.97
2022-10-31T18:18:50.937Z,76728.75
2022-10-31T18:21:20.002Z,73676.53
2022-10-31T18:23:47.873Z,74024.00
2022-10-31T18:26:15.733Z,73353.31
2022-10-31T18:28:43.213Z,73359.50
2022-10-31T18:31:10.701Z,71974.13
2022-10-31T18:33:38.681Z,71660.38
2022-10-31T18:36:08.131Z,72328.59
2022-10-31T18:38:38.998Z,73000.41
2022-10-31T18:41:06.948Z,71301.22
2022-10-31T18:43:34.481Z,71300.03
2022-10-31T18:46:03.094Z,69599.25
2022-10-31T18:48:31.346Z,73337.22
2022-10-31T18:50:59.428Z,72320.66
2022-10-31T18:53:26.904Z,69252.06
2022-10-31T18:55:55.690Z,70278.53
2022-10-31T18:58:23.185Z,68236.44
2022-10-31T19:00:50.774Z,70953.09
2022-10-31T19:03:23.333Z,68932.31
2022-10-31T19:05:55.685Z,70609.22
2022-10-31T19:08:23.449Z,68588.09
2022-10-31T19:10:50.990Z,68574.19
2022-10-31T19:13:19.828Z,68214.56
2022-10-31T19:15:48.868Z,69575.72
2022-10-31T19:18:16.317Z,70248.84
2022-10-31T19:20:43.826Z,70232.84
2022-10-31T19:23:11.281Z,68524.41
2022-10-31T19:25:39.301Z,69208.22
2022-10-31T19:28:06.940Z,66486.63
2022-10-31T19:30:35.728Z,67166.50
2022-10-31T19:33:05.367Z,68173.66
2022-10-31T19:35:32.828Z,67840.22
2022-10-31T19:38:00.637Z,67493.66
2022-10-31T19:40:28.312Z,67152.91
2022-10-31T19:42:55.761Z,67820.19
2022-10-31T19:45:23.237Z,66796.34
2022-10-31T19:47:52.005Z,66450.13
2022-10-31T19:50:19.491Z,65429.19
2022-10-31T19:52:47.505Z,65769.63
2022-10-31T19:55:15.091Z,66102.88
2022-10-31T19:58:00.854Z,65423.09
2022-10-31T20:00:29.514Z,64406.44
2022-10-31T20:03:00.137Z,66433.28
2022-10-31T20:05:27.749Z,66437.75
2022-10-31T20:07:56.874Z,65417.56
2022-10-31T20:10:25.079Z,64403.19
2022-10-31T20:12:52.528Z,64741.28
2022-10-31T20:15:20.023Z,65077.22
2022-10-31T20:17:47.457Z,64747.31
2022-10-31T20:20:16.445Z,63048.84
2022-10-31T20:22:44.630Z,62707.69
2022-10-31T20:25:12.154Z,62680.63
2022-10-31T20:27:39.613Z,62684.88
2022-10-31T20:30:08.512Z,60662.41
2022-10-31T20:32:36.754Z,59996.66
2022-10-31T20:35:04.513Z,60001.75
2022-10-31T20:37:33.329Z,58998.06
2022-10-31T20:40:00.776Z,58322.13
2022-10-31T20:42:28.236Z,58663.81
2022-10-31T20:44:55.705Z,58994.06
2022-10-31T20:47:25.901Z,57662.91
2022-10-31T20:49:53.616Z,57657.53
2022-10-31T20:52:21.073Z,56327.41
2022-10-31T20:54:50.096Z,58014.91
2022-10-31T20:57:17.524Z,58680.72
2022-10-31T20:59:44.990Z,60031.22
2022-10-31T21:02:12.655Z,61037.84
2022-10-31T21:04:40.231Z,61034.22
2022-10-31T21:07:10.755Z,60701.94
2022-10-31T21:09:38.219Z,60029.16
2022-10-31T21:12:07.295Z,60709.16
2022-10-31T21:14:36.380Z,61724.22
2022-10-31T21:17:04.825Z,61721.59
2022-10-31T21:19:33.311Z,62381.34
2022-10-31T21:22:00.787Z,59992.59
2022-10-31T21:24:28.757Z,60000.22
2022-10-31T21:26:56.294Z,60336.44
2022-10-31T21:29:25.430Z,61355.03
2022-10-31T21:31:53.145Z,60024.09
2022-10-31T21:34:20.590Z,60690.66
2022-10-31T21:36:48.070Z,61358.13
2022-10-31T21:39:15.512Z,61663.66
2022-10-31T21:41:43.440Z,60980.00
2022-10-31T21:44:10.888Z,58612.16
2022-10-31T21:46:41.732Z,57949.59
2022-10-31T21:49:11.266Z,58612.63
2022-10-31T21:51:38.726Z,58277.69
2022-10-31T21:54:23.796Z,58274.72
2022-10-31T21:56:51.972Z,58933.63
2022-10-31T21:59:20.075Z,58586.31
2022-10-31T22:01:49.431Z,56560.53
2022-10-31T22:04:17.001Z,56231.50
2022-10-31T22:06:44.735Z,56564.84
2022-10-31T22:09:14.376Z,57240.69
2022-10-31T22:11:44.741Z,54877.84
2022-10-31T22:14:13.347Z,55889.13
2022-10-31T22:16:41.391Z,57570.13
2022-10-31T22:19:12.334Z,57568.16
2022-10-31T22:21:41.858Z,56215.25
2022-10-31T22:24:10.252Z,57907.81
2022-10-31T22:26:38.352Z,56901.06
2022-10-31T22:29:07.894Z,58251.00
2022-10-31T22:31:41.705Z,57227.09
2022-10-31T22:34:11.155Z,58552.56
2022-10-31T22:36:39.097Z,58564.47
2022-10-31T22:39:07.241Z,59890.00
2022-10-31T22:41:36.864Z,59211.75
2022-10-31T22:44:06.035Z,58207.56
2022-10-31T22:46:34.926Z,58537.66
2022-10-31T22:49:04.415Z,58197.69
2022-10-31T22:51:35.418Z,58528.72
2022-10-31T22:54:03.223Z,59182.66
2022-10-31T22:56:33.247Z,57486.69
2022-10-31T22:59:04.705Z,57837.16
2022-10-31T23:01:34.251Z,57165.97
2022-10-31T23:04:02.348Z,57501.31
2022-10-31T23:06:31.562Z,56489.06
2022-10-31T23:09:02.363Z,57175.19
2022-10-31T23:11:33.084Z,57839.13
2022-10-31T23:14:10.845Z,56834.47
2022-10-31T23:16:42.080Z,55834.59
2022-10-31T23:19:10.634Z,56509.19
2022-10-31T23:21:55.935Z,56162.81
2022-10-31T23:24:27.779Z,55142.28
2022-10-31T23:27:11.417Z,53476.63
2022-10-31T23:29:45.151Z,54476.91
2022-10-31T23:32:20.214Z,53137.28
2022-10-31T23:34:48.593Z,51797.22
2022-10-31T23:37:17.549Z,51463.28
2022-10-31T23:39:46.564Z,51801.63
2022-10-31T23:42:15.604Z,50128.41
2022-10-31T23:44:43.258Z,49121.44
2022-10-31T23:47:10.724Z,48789.13
2022-10-31T23:49:38.702Z,48116.19
2022-10-31T23:52:07.058Z,48111.28
2022-10-31T23:54:34.796Z,48114.56
2022-10-31T23:57:03.819Z,47444.19
2022-10-31T23:59:31.696Z,46109.00
